createdAt,value
2018-05-04T00:00:30.199Z,67.72
2018-05-04T00:01:30.134Z,67.63
2018-05-04T00:02:30.054Z,67.82
2018-05-04T00:03:29.990Z,67.63
2018-05-04T00:04:29.912Z,68.39
2018-05-04T00:05:29.839Z,67.91
2018-05-04T00:06:29.760Z,67.91
2018-05-04T00:07:29.695Z,68.01
2018-05-04T00:08:29.613Z,68.20
2018-05-04T00:09:29.543Z,67.91
2018-05-04T00:10:29.465Z,68.20
2018-05-04T00:11:29.399Z,68.35
2018-05-04T00:12:29.319Z,68.74
2018-05-04T00:13:29.254Z,68.74
2018-05-04T00:14:29.175Z,69.12
2018-05-04T00:15:29.107Z,68.74
2018-05-04T00:16:29.025Z,69.12
2018-05-04T00:17:28.965Z,69.02
2018-05-04T00:18:28.878Z,69.21
2018-05-04T00:19:28.819Z,69.21
2018-05-04T00:20:28.730Z,68.84
2018-05-04T00:21:28.665Z,69.70
2018-05-04T00:22:28.583Z,69.89
2018-05-04T00:23:28.523Z,69.60
2018-05-04T00:24:28.440Z,69.70
2018-05-04T00:25:28.374Z,69.41
2018-05-04T00:26:28.293Z,69.79
2018-05-04T00:27:29.227Z,69.98
2018-05-04T00:28:28.144Z,69.79
2018-05-04T00:29:28.080Z,69.89
2018-05-04T00:30:27.996Z,70.17
2018-05-04T00:31:27.931Z,70.07
2018-05-04T00:32:27.851Z,70.17
2018-05-04T00:33:27.786Z,69.98
2018-05-04T00:34:27.704Z,70.27
2018-05-04T00:35:27.637Z,70.17
2018-05-04T00:36:27.564Z,70.07
2018-05-04T00:37:27.487Z,70.17
2018-05-04T00:38:27.413Z,70.04
2018-05-04T00:39:27.341Z,70.52
2018-05-04T00:40:27.261Z,70.56
2018-05-04T00:41:27.196Z,70.56
2018-05-04T00:42:27.114Z,70.23
2018-05-04T00:43:27.047Z,71.09
2018-05-04T00:44:26.967Z,70.71
2018-05-04T00:45:26.905Z,70.90
2018-05-04T00:46:26.816Z,70.65
2018-05-04T00:47:26.763Z,71.00
2018-05-04T00:48:26.672Z,71.09
2018-05-04T00:49:26.608Z,71.09
2018-05-04T00:50:26.527Z,70.71
2018-05-04T00:51:26.459Z,70.71
2018-05-04T00:52:26.376Z,70.77
2018-05-04T00:53:26.312Z,71.25
2018-05-04T00:54:26.231Z,72.20
2018-05-04T00:55:26.163Z,72.68
2018-05-04T00:56:26.082Z,72.87
2018-05-04T00:57:26.024Z,73.07
2018-05-04T00:58:25.935Z,73.12
2018-05-04T00:59:25.871Z,73.25
2018-05-04T01:00:25.785Z,73.07
2018-05-04T01:01:25.722Z,72.97
2018-05-04T01:02:25.640Z,73.03
2018-05-04T01:03:25.575Z,73.63
2018-05-04T01:04:25.506Z,73.92
2018-05-04T01:05:25.423Z,73.83
2018-05-04T01:06:25.349Z,73.92
2018-05-04T01:07:25.272Z,73.83
2018-05-04T01:08:25.190Z,73.73
2018-05-04T01:09:25.125Z,73.92
2018-05-04T01:10:25.048Z,73.25
2018-05-04T01:11:24.988Z,73.63
2018-05-04T01:12:24.900Z,72.97
2018-05-04T01:13:24.832Z,73.07
2018-05-04T01:14:24.751Z,73.25
2018-05-04T01:15:24.686Z,73.63
2018-05-04T01:16:24.601Z,72.83
2018-05-04T01:17:24.537Z,73.16
2018-05-04T01:18:24.459Z,72.68
2018-05-04T01:19:24.387Z,72.93
2018-05-04T01:20:24.305Z,73.07
2018-05-04T01:21:24.243Z,73.63
2018-05-04T01:22:24.158Z,73.54
2018-05-04T01:23:24.092Z,73.98
2018-05-04T01:24:24.032Z,74.65
2018-05-04T01:25:23.944Z,74.08
2018-05-04T01:26:23.858Z,74.08
2018-05-04T01:27:23.798Z,73.88
2018-05-04T01:28:23.713Z,74.37
2018-05-04T01:29:23.644Z,74.17
2018-05-04T01:30:23.560Z,73.88
2018-05-04T01:31:23.496Z,73.69
2018-05-04T01:32:23.416Z,73.69
2018-05-04T01:33:23.352Z,74.46
2018-05-04T01:34:23.264Z,74.46
2018-05-04T01:35:23.198Z,75.13
2018-05-04T01:36:23.116Z,75.13
2018-05-04T01:37:23.055Z,74.55
2018-05-04T01:38:22.965Z,74.55
2018-05-04T01:39:22.900Z,74.27
2018-05-04T01:40:22.815Z,72.55
2018-05-04T01:41:22.755Z,71.46
2018-05-04T01:42:22.672Z,71.46
2018-05-04T01:43:22.604Z,72.23
2018-05-04T01:44:23.353Z,72.89
2018-05-04T01:45:22.453Z,73.28
2018-05-04T01:46:22.377Z,74.04
2018-05-04T01:47:22.306Z,75.09
2018-05-04T01:48:22.219Z,75.18
2018-05-04T01:49:22.159Z,75.66
2018-05-04T01:50:22.071Z,75.76
2018-05-04T01:51:23.006Z,74.90
2018-05-04T01:52:21.924Z,73.94
2018-05-04T01:53:21.857Z,73.66
2018-05-04T01:54:21.778Z,73.56
2018-05-04T01:55:21.708Z,73.85
2018-05-04T01:56:21.626Z,73.18
2018-05-04T01:57:21.556Z,73.33
2018-05-04T01:58:21.477Z,73.62
2018-05-04T01:59:21.408Z,74.10
2018-05-04T02:00:21.326Z,75.24
2018-05-04T02:01:21.261Z,74.86
2018-05-04T02:02:21.177Z,75.34
2018-05-04T02:03:21.110Z,75.91
2018-05-04T02:04:21.027Z,76.01
2018-05-04T02:05:20.958Z,75.81
2018-05-04T02:06:20.878Z,76.20
2018-05-04T02:07:20.809Z,76.01
2018-05-04T02:08:20.730Z,76.29
2018-05-04T02:09:20.655Z,76.77
2018-05-04T02:10:20.578Z,76.86
2018-05-04T02:11:20.513Z,77.62
2018-05-04T02:12:20.427Z,77.62
2018-05-04T02:13:20.359Z,77.06
2018-05-04T02:14:20.278Z,76.39
2018-05-04T02:15:20.214Z,76.01
2018-05-04T02:16:20.132Z,76.01
2018-05-04T02:17:20.059Z,76.20
2018-05-04T02:18:19.983Z,74.86
2018-05-04T02:19:19.908Z,74.67
2018-05-04T02:20:19.832Z,74.29
2018-05-04T02:21:19.760Z,75.24
2018-05-04T02:22:19.678Z,75.05
2018-05-04T02:23:19.612Z,76.57
2018-05-04T02:24:19.531Z,77.34
2018-05-04T02:25:19.464Z,77.53
2018-05-04T02:26:19.389Z,76.96
2018-05-04T02:27:19.309Z,76.96
2018-05-04T02:28:19.229Z,76.96
2018-05-04T02:29:19.161Z,77.53
2018-05-04T02:30:19.078Z,78.20
2018-05-04T02:31:19.015Z,78.49
2018-05-04T02:32:18.928Z,78.58
2018-05-04T02:33:18.863Z,78.77
2018-05-04T02:34:18.775Z,78.86
2018-05-04T02:35:18.714Z,78.67
2018-05-04T02:36:18.627Z,78.96
2018-05-04T02:37:18.560Z,79.06
2018-05-04T02:38:18.477Z,79.25
2018-05-04T02:39:18.416Z,79.72
2018-05-04T02:40:18.325Z,79.91
2018-05-04T02:41:18.260Z,79.63
2018-05-04T02:42:18.175Z,80.49
2018-05-04T02:43:18.120Z,79.91
2018-05-04T02:44:18.029Z,79.91
2018-05-04T02:45:17.959Z,79.53
2018-05-04T02:46:17.876Z,79.72
2018-05-04T02:47:17.805Z,80.30
2018-05-04T02:48:17.721Z,79.63
2018-05-04T02:49:17.654Z,79.63
2018-05-04T02:50:17.573Z,80.58
2018-05-04T02:51:17.507Z,80.01
2018-05-04T02:52:17.432Z,79.82
2018-05-04T02:53:17.354Z,79.63
2018-05-04T02:54:17.273Z,79.06
2018-05-04T02:55:17.208Z,79.25
2018-05-04T02:56:17.121Z,78.96
2018-05-04T02:57:17.060Z,79.15
2018-05-04T02:58:16.971Z,79.35
2018-05-04T02:59:16.905Z,79.15
2018-05-04T03:00:16.820Z,78.96
2018-05-04T03:01:16.754Z,79.06
2018-05-04T03:02:16.674Z,79.15
2018-05-04T03:03:16.605Z,79.53
2018-05-04T03:04:16.519Z,79.06
2018-05-04T03:05:16.453Z,79.25
2018-05-04T03:06:16.372Z,79.06
2018-05-04T03:07:16.304Z,79.25
2018-05-04T03:08:16.219Z,78.77
2018-05-04T03:09:16.158Z,78.86
2018-05-04T03:10:16.076Z,78.58
2018-05-04T03:11:16.006Z,78.58
2018-05-04T03:12:15.919Z,78.01
2018-05-04T03:13:15.855Z,77.62
2018-05-04T03:14:15.767Z,77.15
2018-05-04T03:15:15.715Z,77.44
2018-05-04T03:16:15.614Z,77.53
2018-05-04T03:17:15.552Z,77.82
2018-05-04T03:18:15.476Z,78.33
2018-05-04T03:19:16.407Z,77.82
2018-05-04T03:20:15.323Z,77.00
2018-05-04T03:21:15.249Z,77.19
2018-05-04T03:22:15.166Z,77.44
2018-05-04T03:23:15.109Z,77.28
2018-05-04T03:24:15.015Z,77.53
2018-05-04T03:25:14.951Z,77.47
2018-05-04T03:26:14.870Z,77.76
2018-05-04T03:27:14.795Z,77.06
2018-05-04T03:28:14.723Z,77.09
2018-05-04T03:29:15.657Z,77.38
2018-05-04T03:30:14.571Z,77.47
2018-05-04T03:31:14.499Z,77.57
2018-05-04T03:32:14.415Z,77.57
2018-05-04T03:33:14.348Z,77.76
2018-05-04T03:34:14.263Z,77.09
2018-05-04T03:35:14.194Z,77.95
2018-05-04T03:36:14.113Z,77.57
2018-05-04T03:37:14.047Z,77.28
2018-05-04T03:38:13.960Z,76.90
2018-05-04T03:39:13.895Z,76.42
2018-05-04T03:40:13.814Z,76.33
2018-05-04T03:41:13.826Z,76.52
2018-05-04T03:42:13.662Z,76.81
2018-05-04T03:43:13.634Z,76.71
2018-05-04T03:44:13.514Z,76.42
2018-05-04T03:45:13.545Z,76.14
2018-05-04T03:46:13.362Z,75.95
2018-05-04T03:47:13.356Z,76.14
2018-05-04T03:48:13.215Z,76.14
2018-05-04T03:49:13.165Z,76.14
2018-05-04T03:50:13.061Z,76.14
2018-05-04T03:51:13.076Z,76.81
2018-05-04T03:52:12.908Z,77.09
2018-05-04T03:53:12.885Z,76.81
2018-05-04T03:54:12.763Z,76.14
2018-05-04T03:55:12.794Z,75.95
2018-05-04T03:56:12.608Z,75.85
2018-05-04T03:57:12.602Z,76.04
2018-05-04T03:58:12.463Z,76.23
2018-05-04T03:59:12.412Z,76.42
2018-05-04T04:00:12.310Z,76.42
2018-05-04T04:01:12.324Z,75.95
2018-05-04T04:02:12.161Z,75.95
2018-05-04T04:03:12.129Z,75.66
2018-05-04T04:04:12.007Z,75.76
2018-05-04T04:05:12.043Z,75.95
2018-05-04T04:06:11.859Z,75.95
2018-05-04T04:07:11.849Z,75.95
2018-05-04T04:08:11.708Z,76.14
2018-05-04T04:09:11.640Z,75.95
2018-05-04T04:10:11.558Z,76.56
2018-05-04T04:11:11.569Z,76.27
2018-05-04T04:12:11.407Z,76.84
2018-05-04T04:13:11.377Z,76.33
2018-05-04T04:14:11.318Z,75.76
2018-05-04T04:15:11.291Z,75.85
2018-05-04T04:16:11.108Z,75.89
2018-05-04T04:17:11.043Z,75.66
2018-05-04T04:18:10.963Z,76.14
2018-05-04T04:19:10.904Z,76.33
2018-05-04T04:20:10.807Z,75.76
2018-05-04T04:21:10.818Z,75.42
2018-05-04T04:22:10.659Z,75.32
2018-05-04T04:23:10.590Z,75.22
2018-05-04T04:24:10.504Z,75.42
2018-05-04T04:25:10.533Z,75.03
2018-05-04T04:26:10.366Z,75.32
2018-05-04T04:27:10.345Z,75.22
2018-05-04T04:28:10.287Z,75.32
2018-05-04T04:29:10.139Z,74.55
2018-05-04T04:30:10.062Z,74.55
2018-05-04T04:31:09.988Z,74.55
2018-05-04T04:32:09.907Z,74.55
2018-05-04T04:33:09.870Z,74.46
2018-05-04T04:34:09.755Z,75.42
2018-05-04T04:35:09.690Z,75.70
2018-05-04T04:36:09.609Z,75.42
2018-05-04T04:37:09.595Z,75.42
2018-05-04T04:38:09.459Z,76.18
2018-05-04T04:39:09.392Z,76.08
2018-05-04T04:40:09.306Z,75.79
2018-05-04T04:41:09.315Z,75.60
2018-05-04T04:42:09.158Z,75.70
2018-05-04T04:43:09.096Z,75.98
2018-05-04T04:44:09.010Z,75.13
2018-05-04T04:45:09.032Z,75.51
2018-05-04T04:46:08.857Z,75.70
2018-05-04T04:47:08.837Z,76.18
2018-05-04T04:48:08.710Z,76.56
2018-05-04T04:49:08.644Z,76.94
2018-05-04T04:50:08.565Z,78.75
2018-05-04T04:51:08.489Z,77.80
2018-05-04T04:52:08.408Z,77.03
2018-05-04T04:53:08.341Z,76.37
2018-05-04T04:54:08.260Z,76.46
2018-05-04T04:55:08.199Z,76.18
2018-05-04T04:56:08.107Z,75.79
2018-05-04T04:57:08.086Z,76.27
2018-05-04T04:58:07.960Z,75.32
2018-05-04T04:59:07.994Z,75.32
2018-05-04T05:00:07.812Z,75.54
2018-05-04T05:01:07.801Z,75.42
2018-05-04T05:02:07.670Z,75.32
2018-05-04T05:03:07.590Z,74.84
2018-05-04T05:04:07.513Z,75.16
2018-05-04T05:05:07.442Z,75.03
2018-05-04T05:06:07.363Z,75.51
2018-05-04T05:07:07.335Z,75.07
2018-05-04T05:08:07.219Z,74.78
2018-05-04T05:09:07.246Z,75.54
2018-05-04T05:10:07.062Z,76.12
2018-05-04T05:11:06.997Z,76.60
2018-05-04T05:12:06.915Z,76.69
2018-05-04T05:13:06.851Z,76.03
2018-05-04T05:14:06.766Z,75.64
2018-05-04T05:15:06.772Z,74.98
2018-05-04T05:16:06.775Z,74.98
2018-05-04T05:17:06.541Z,75.16
2018-05-04T05:18:06.469Z,75.26
2018-05-04T05:19:06.421Z,75.45
2018-05-04T05:20:06.314Z,75.07
2018-05-04T05:21:06.300Z,74.59
2018-05-04T05:22:06.190Z,75.16
2018-05-04T05:23:06.880Z,74.98
2018-05-04T05:24:06.015Z,75.45
2018-05-04T05:25:06.014Z,75.45
2018-05-04T05:26:05.869Z,75.07
2018-05-04T05:27:05.828Z,74.98
2018-05-04T05:28:05.722Z,74.59
2018-05-04T05:29:05.649Z,75.07
2018-05-04T05:30:05.569Z,75.45
2018-05-04T05:31:05.504Z,74.59
2018-05-04T05:32:05.418Z,74.40
2018-05-04T05:33:05.359Z,75.16
2018-05-04T05:34:05.273Z,75.07
2018-05-04T05:35:05.205Z,75.16
2018-05-04T05:36:05.125Z,75.26
2018-05-04T05:37:05.053Z,75.35
2018-05-04T05:38:04.975Z,74.40
2018-05-04T05:39:04.905Z,74.88
2018-05-04T05:40:04.821Z,75.30
2018-05-04T05:41:04.756Z,75.20
2018-05-04T05:42:04.674Z,75.59
2018-05-04T05:43:04.607Z,75.26
2018-05-04T05:44:04.523Z,74.73
2018-05-04T05:45:05.455Z,74.30
2018-05-04T05:46:04.376Z,74.82
2018-05-04T05:47:04.310Z,75.01
2018-05-04T05:48:04.228Z,74.63
2018-05-04T05:49:04.156Z,74.73
2018-05-04T05:50:04.076Z,74.82
2018-05-04T05:51:04.012Z,75.20
2018-05-04T05:52:03.930Z,75.20
2018-05-04T05:53:03.855Z,75.01
2018-05-04T05:54:03.777Z,75.30
2018-05-04T05:55:03.719Z,75.20
2018-05-04T05:56:03.625Z,74.73
2018-05-04T05:57:03.569Z,74.63
2018-05-04T05:58:03.502Z,75.30
2018-05-04T05:59:03.424Z,75.20
2018-05-04T06:00:03.330Z,75.20
2018-05-04T06:01:03.266Z,75.20
2018-05-04T06:02:03.195Z,75.87
2018-05-04T06:03:03.116Z,75.59
2018-05-04T06:04:03.036Z,75.39
2018-05-04T06:05:02.965Z,75.20
2018-05-04T06:06:02.888Z,75.10
2018-05-04T06:07:02.817Z,75.01
2018-05-04T06:08:02.734Z,75.20
2018-05-04T06:09:02.669Z,75.59
2018-05-04T06:10:02.588Z,75.01
2018-05-04T06:11:02.521Z,75.20
2018-05-04T06:12:02.441Z,75.59
2018-05-04T06:13:02.369Z,75.20
2018-05-04T06:14:02.293Z,74.34
2018-05-04T06:15:02.296Z,74.53
2018-05-04T06:16:02.143Z,75.39
2018-05-04T06:17:02.075Z,74.53
2018-05-04T06:18:01.993Z,74.63
2018-05-04T06:19:01.928Z,74.63
2018-05-04T06:20:01.847Z,74.44
2018-05-04T06:21:01.779Z,74.53
2018-05-04T06:22:01.700Z,75.20
2018-05-04T06:23:01.630Z,75.01
2018-05-04T06:24:01.544Z,75.49
2018-05-04T06:25:01.486Z,74.19
2018-05-04T06:26:01.401Z,74.85
2018-05-04T06:27:01.332Z,74.48
2018-05-04T06:28:01.252Z,74.48
2018-05-04T06:29:01.182Z,74.57
2018-05-04T06:30:01.101Z,74.09
2018-05-04T06:31:01.036Z,74.28
2018-05-04T06:32:00.948Z,74.38
2018-05-04T06:33:00.886Z,74.38
2018-05-04T06:34:00.804Z,74.57
2018-05-04T06:35:00.730Z,74.57
2018-05-04T06:36:00.669Z,74.09
2018-05-04T06:37:00.578Z,74.38
2018-05-04T06:38:00.625Z,74.57
2018-05-04T06:39:00.431Z,74.09
2018-05-04T06:40:00.435Z,73.94
2018-05-04T06:41:00.286Z,73.84
2018-05-04T06:42:00.239Z,72.98
2018-05-04T06:43:00.136Z,73.84
2018-05-04T06:44:00.151Z,74.04
2018-05-04T06:45:00.319Z,73.65
2018-05-04T06:46:00.005Z,73.94
2018-05-04T06:46:59.841Z,73.55
2018-05-04T06:47:59.816Z,72.98
2018-05-04T06:48:59.696Z,73.17
2018-05-04T06:49:59.725Z,72.88
2018-05-04T06:50:59.552Z,72.98
2018-05-04T06:51:59.539Z,73.17
2018-05-04T06:52:59.402Z,74.13
2018-05-04T06:53:59.342Z,74.04
2018-05-04T06:55:00.209Z,73.97
2018-05-04T06:55:59.250Z,73.79
2018-05-04T06:56:59.104Z,73.21
2018-05-04T06:57:59.061Z,73.79
2018-05-04T06:58:58.953Z,73.30
2018-05-04T06:59:58.979Z,73.11
2018-05-04T07:00:58.805Z,73.11
2018-05-04T07:01:58.785Z,73.02
2018-05-04T07:02:58.659Z,71.68
2018-05-04T07:03:58.693Z,72.54
2018-05-04T07:04:58.514Z,72.25
2018-05-04T07:05:58.498Z,71.81
2018-05-04T07:06:58.363Z,71.91
2018-05-04T07:07:58.306Z,72.86
2018-05-04T07:08:58.254Z,72.77
2018-05-04T07:09:58.219Z,71.81
2018-05-04T07:10:58.075Z,71.52
2018-05-04T07:11:58.026Z,71.42
2018-05-04T07:12:57.923Z,71.71
2018-05-04T07:13:57.937Z,71.23
2018-05-04T07:14:57.847Z,70.66
2018-05-04T07:15:57.753Z,71.56
2018-05-04T07:16:57.636Z,71.46
2018-05-04T07:17:57.655Z,70.03
2018-05-04T07:18:57.482Z,70.98
2018-05-04T07:19:57.466Z,71.37
2018-05-04T07:20:57.334Z,71.17
2018-05-04T07:21:57.406Z,70.70
2018-05-04T07:22:57.190Z,70.35
2018-05-04T07:23:57.192Z,70.64
2018-05-04T07:24:57.044Z,68.72
2018-05-04T07:25:56.995Z,68.05
2018-05-04T07:26:56.896Z,68.18
2018-05-04T07:27:56.907Z,67.85
2018-05-04T07:28:56.750Z,68.37
2018-05-04T07:29:56.719Z,67.99
2018-05-04T07:30:56.599Z,68.27
2018-05-04T07:31:56.627Z,67.22
2018-05-04T07:32:56.462Z,66.55
2018-05-04T07:33:56.433Z,66.67
2018-05-04T07:34:56.314Z,66.29
2018-05-04T07:35:56.362Z,66.77
2018-05-04T07:36:56.171Z,66.49
2018-05-04T07:37:56.152Z,66.00
2018-05-04T07:38:56.028Z,67.73
2018-05-04T07:39:56.074Z,66.80
2018-05-04T07:40:55.877Z,66.13
2018-05-04T07:41:55.873Z,66.13
2018-05-04T07:42:55.733Z,65.27
2018-05-04T07:43:56.704Z,65.36
2018-05-04T07:44:55.589Z,65.36
2018-05-04T07:45:55.595Z,64.31
2018-05-04T07:46:55.451Z,64.34
2018-05-04T07:47:55.397Z,63.35
2018-05-04T07:48:55.299Z,63.92
2018-05-04T07:49:55.315Z,65.08
2018-05-04T07:50:55.158Z,64.92
2018-05-04T07:51:55.120Z,65.20
2018-05-04T07:52:55.015Z,64.92
2018-05-04T07:53:55.044Z,65.59
2018-05-04T07:54:54.870Z,64.76
2018-05-04T07:55:54.839Z,64.28
2018-05-04T07:56:54.728Z,64.66
2018-05-04T07:57:54.753Z,63.64
2018-05-04T07:58:54.586Z,63.25
2018-05-04T07:59:54.559Z,61.61
2018-05-04T08:00:54.440Z,61.23
2018-05-04T08:01:54.469Z,61.14
2018-05-04T08:02:54.353Z,61.49
2018-05-04T08:03:54.278Z,62.74
2018-05-04T08:04:54.158Z,63.02
2018-05-04T08:05:54.189Z,63.25
2018-05-04T08:06:54.018Z,62.58
2018-05-04T08:07:53.999Z,62.10
2018-05-04T08:08:53.875Z,61.55
2018-05-04T08:09:53.901Z,60.94
2018-05-04T08:10:53.736Z,60.56
2018-05-04T08:11:53.713Z,62.68
2018-05-04T08:12:53.589Z,61.43
2018-05-04T08:13:53.628Z,62.71
2018-05-04T08:14:53.451Z,62.32
2018-05-04T08:15:53.439Z,60.14
2018-05-04T08:16:53.317Z,59.94
2018-05-04T08:17:53.351Z,60.14
2018-05-04T08:18:53.173Z,60.52
2018-05-04T08:19:53.159Z,59.56
2018-05-04T08:20:53.029Z,61.29
2018-05-04T08:21:53.071Z,62.35
2018-05-04T08:22:52.888Z,61.39
2018-05-04T08:23:52.877Z,59.56
2018-05-04T08:24:52.747Z,59.75
2018-05-04T08:25:52.789Z,59.72
2018-05-04T08:26:52.609Z,60.01
2018-05-04T08:27:52.602Z,61.26
2018-05-04T08:28:52.468Z,61.26
2018-05-04T08:29:52.512Z,61.58
2018-05-04T08:30:52.333Z,60.62
2018-05-04T08:31:52.317Z,60.52
2018-05-04T08:32:52.191Z,63.31
2018-05-04T08:33:52.229Z,61.00
2018-05-04T08:34:52.055Z,61.68
2018-05-04T08:35:52.035Z,62.83
2018-05-04T08:36:51.909Z,63.31
2018-05-04T08:37:51.947Z,60.07
2018-05-04T08:38:51.773Z,59.69
2018-05-04T08:39:51.759Z,59.62
2018-05-04T08:40:51.685Z,60.97
2018-05-04T08:41:51.670Z,60.10
2018-05-04T08:42:51.545Z,59.62
2018-05-04T08:43:51.477Z,60.10
2018-05-04T08:44:51.356Z,60.20
2018-05-04T08:45:51.383Z,59.81
2018-05-04T08:46:51.380Z,60.58
2018-05-04T08:47:51.186Z,60.00
2018-05-04T08:48:51.079Z,60.10
2018-05-04T08:49:51.103Z,60.32
2018-05-04T08:50:50.980Z,59.27
2018-05-04T08:51:50.911Z,58.88
2018-05-04T08:52:50.803Z,58.75
2018-05-04T08:53:52.768Z,58.37
2018-05-04T08:54:50.673Z,59.04
2018-05-04T08:55:50.636Z,59.81
2018-05-04T08:56:50.530Z,60.39
2018-05-04T08:57:50.543Z,59.72
2018-05-04T08:58:50.392Z,61.25
2018-05-04T08:59:50.352Z,61.35
2018-05-04T09:00:50.255Z,59.17
2018-05-04T09:01:50.260Z,58.49
2018-05-04T09:02:50.117Z,59.65
2018-05-04T09:03:50.071Z,60.32
2018-05-04T09:04:49.979Z,58.47
2018-05-04T09:05:49.982Z,58.47
2018-05-04T09:06:49.848Z,58.65
2018-05-04T09:07:49.789Z,58.82
2018-05-04T09:08:49.721Z,59.72
2018-05-04T09:09:49.701Z,60.77
2018-05-04T09:10:49.565Z,60.58
2018-05-04T09:11:49.607Z,61.19
2018-05-04T09:12:49.499Z,59.72
2018-05-04T09:13:49.421Z,60.23
2018-05-04T09:14:49.297Z,59.45
2018-05-04T09:15:49.333Z,59.75
2018-05-04T09:16:49.156Z,60.23
2018-05-04T09:17:49.143Z,58.01
2018-05-04T09:18:49.018Z,59.07
2018-05-04T09:19:49.132Z,59.30
2018-05-04T09:20:48.884Z,59.78
2018-05-04T09:21:48.857Z,58.01
2018-05-04T09:22:48.745Z,58.01
2018-05-04T09:23:48.771Z,57.92
2018-05-04T09:24:48.610Z,56.27
2018-05-04T09:25:48.579Z,58.59
2018-05-04T09:26:48.477Z,59.07
2018-05-04T09:27:48.490Z,58.30
2018-05-04T09:28:48.338Z,57.12
2018-05-04T09:29:48.298Z,58.17
2018-05-04T09:30:48.273Z,58.56
2018-05-04T09:31:48.213Z,60.10
2018-05-04T09:32:48.068Z,59.43
2018-05-04T09:33:48.017Z,59.75
2018-05-04T09:34:47.932Z,58.78
2018-05-04T09:35:47.863Z,58.88
2018-05-04T09:36:47.797Z,59.36
2018-05-04T09:37:47.844Z,58.88
2018-05-04T09:38:47.657Z,57.94
2018-05-04T09:39:47.649Z,56.98
2018-05-04T09:40:47.516Z,56.11
2018-05-04T09:41:47.462Z,57.68
2018-05-04T09:42:47.387Z,58.36
2018-05-04T09:43:47.376Z,55.76
2018-05-04T09:44:47.250Z,56.46
2018-05-04T09:45:47.282Z,56.94
2018-05-04T09:46:47.114Z,56.84
2018-05-04T09:47:47.092Z,55.68
2018-05-04T09:48:46.979Z,55.42
2018-05-04T09:49:51.609Z,54.84
2018-05-04T09:50:46.844Z,54.33
2018-05-04T09:51:46.808Z,53.85
2018-05-04T09:52:46.713Z,54.21
2018-05-04T09:53:57.575Z,53.92
2018-05-04T09:54:47.467Z,54.31
2018-05-04T09:55:46.529Z,54.96
2018-05-04T09:56:46.444Z,55.44
2018-05-04T09:57:46.441Z,55.34
2018-05-04T09:58:46.309Z,55.73
2018-05-04T09:59:46.345Z,55.54
2018-05-04T10:00:46.170Z,55.44
2018-05-04T10:01:46.160Z,56.30
2018-05-04T10:02:46.037Z,56.24
2018-05-04T10:03:46.077Z,56.33
2018-05-04T10:04:45.916Z,56.81
2018-05-04T10:05:45.882Z,54.60
2018-05-04T10:06:45.786Z,54.98
2018-05-04T10:07:45.794Z,54.43
2018-05-04T10:08:45.631Z,54.72
2018-05-04T10:09:45.599Z,53.95
2018-05-04T10:10:45.502Z,55.27
2018-05-04T10:11:45.509Z,55.56
2018-05-04T10:12:45.362Z,54.31
2018-05-04T10:13:45.317Z,54.43
2018-05-04T10:14:45.232Z,53.56
2018-05-04T10:15:45.224Z,54.33
2018-05-04T10:16:45.094Z,54.11
2018-05-04T10:17:45.140Z,53.83
2018-05-04T10:18:44.963Z,54.02
2018-05-04T10:19:44.943Z,54.28
2018-05-04T10:20:44.827Z,54.57
2018-05-04T10:21:45.782Z,55.34
2018-05-04T10:22:44.704Z,55.92
2018-05-04T10:23:44.667Z,54.57
2018-05-04T10:24:44.556Z,55.15
2018-05-04T10:25:44.577Z,55.44
2018-05-04T10:26:44.424Z,54.38
2018-05-04T10:27:44.389Z,54.09
2018-05-04T10:28:44.297Z,54.28
2018-05-04T10:29:44.297Z,54.47
2018-05-04T10:30:44.159Z,56.69
2018-05-04T10:31:44.206Z,56.91
2018-05-04T10:32:44.025Z,57.29
2018-05-04T10:33:44.018Z,54.69
2018-05-04T10:34:43.893Z,55.27
2018-05-04T10:35:43.929Z,56.26
2018-05-04T10:36:43.757Z,54.24
2018-05-04T10:37:43.738Z,54.24
2018-05-04T10:38:43.690Z,54.14
2018-05-04T10:39:43.650Z,53.92
2018-05-04T10:40:43.490Z,54.21
2018-05-04T10:41:43.456Z,54.79
2018-05-04T10:42:43.356Z,54.43
2018-05-04T10:43:43.366Z,55.10
2018-05-04T10:44:43.228Z,55.49
2018-05-04T10:45:43.175Z,54.43
2018-05-04T10:46:43.088Z,54.07
2018-05-04T10:47:43.085Z,53.88
2018-05-04T10:48:42.955Z,54.84
2018-05-04T10:49:42.997Z,53.49
2018-05-04T10:50:42.819Z,55.35
2018-05-04T10:51:42.809Z,54.10
2018-05-04T10:52:42.686Z,53.39
2018-05-04T10:53:42.719Z,52.72
2018-05-04T10:54:42.556Z,53.78
2018-05-04T10:55:42.525Z,55.23
2018-05-04T10:56:42.424Z,56.51
2018-05-04T10:57:42.443Z,54.77
2018-05-04T10:58:42.293Z,54.39
2018-05-04T10:59:42.245Z,53.81
2018-05-04T11:00:42.161Z,52.65
2018-05-04T11:01:42.156Z,54.00
2018-05-04T11:02:42.027Z,53.93
2018-05-04T11:03:42.069Z,54.22
2018-05-04T11:04:41.891Z,53.93
2018-05-04T11:05:41.877Z,53.45
2018-05-04T11:06:41.757Z,53.19
2018-05-04T11:07:41.787Z,52.22
2018-05-04T11:08:41.625Z,51.44
2018-05-04T11:09:41.593Z,50.31
2018-05-04T11:10:41.496Z,50.40
2018-05-04T11:11:41.508Z,51.08
2018-05-04T11:12:41.366Z,51.25
2018-05-04T11:13:41.315Z,52.99
2018-05-04T11:14:41.231Z,52.44
2018-05-04T11:15:41.225Z,51.95
2018-05-04T11:16:41.104Z,51.66
2018-05-04T11:17:41.136Z,50.50
2018-05-04T11:18:40.966Z,49.99
2018-05-04T11:19:40.948Z,51.25
2018-05-04T11:20:40.830Z,51.83
2018-05-04T11:21:40.860Z,52.12
2018-05-04T11:22:40.710Z,51.64
2018-05-04T11:23:40.666Z,50.93
2018-05-04T11:24:40.576Z,50.35
2018-05-04T11:25:40.577Z,50.45
2018-05-04T11:26:40.441Z,51.20
2018-05-04T11:27:40.484Z,50.91
2018-05-04T11:28:40.309Z,51.59
2018-05-04T11:29:40.294Z,52.07
2018-05-04T11:30:40.177Z,53.61
2018-05-04T11:31:40.204Z,52.94
2018-05-04T11:32:40.045Z,53.81
2018-05-04T11:33:40.016Z,52.62
2018-05-04T11:34:39.914Z,54.07
2018-05-04T11:35:39.924Z,54.36
2018-05-04T11:36:39.779Z,54.46
2018-05-04T11:37:39.735Z,54.36
2018-05-04T11:38:39.648Z,54.43
2018-05-04T11:39:39.645Z,53.95
2018-05-04T11:40:39.517Z,54.43
2018-05-04T11:41:39.556Z,53.97
2018-05-04T11:42:39.384Z,53.97
2018-05-04T11:43:39.364Z,54.17
2018-05-04T11:44:39.252Z,54.29
2018-05-04T11:45:39.281Z,54.10
2018-05-04T11:46:39.122Z,52.36
2018-05-04T11:47:39.080Z,51.17
2018-05-04T11:48:38.987Z,52.14
2018-05-04T11:49:39.059Z,51.95
2018-05-04T11:50:38.861Z,52.55
2018-05-04T11:51:38.907Z,53.33
2018-05-04T11:52:38.723Z,52.07
2018-05-04T11:53:38.714Z,53.91
2018-05-04T11:54:38.590Z,52.94
2018-05-04T11:55:38.624Z,53.64
2018-05-04T11:56:38.457Z,53.35
2018-05-04T11:57:38.443Z,52.12
2018-05-04T11:58:38.327Z,52.70
2018-05-04T11:59:38.341Z,52.41
2018-05-04T12:00:38.196Z,51.83
2018-05-04T12:01:38.153Z,50.48
2018-05-04T12:02:38.063Z,49.90
2018-05-04T12:03:38.061Z,50.57
2018-05-04T12:04:37.929Z,50.57
2018-05-04T12:05:37.978Z,50.18
2018-05-04T12:06:37.798Z,51.54
2018-05-04T12:07:37.787Z,52.02
2018-05-04T12:08:37.669Z,51.54
2018-05-04T12:09:37.702Z,50.98
2018-05-04T12:10:37.542Z,50.96
2018-05-04T12:11:37.505Z,50.48
2018-05-04T12:12:37.409Z,49.70
2018-05-04T12:13:37.416Z,49.70
2018-05-04T12:14:37.273Z,50.18
2018-05-04T12:15:37.329Z,49.70
2018-05-04T12:16:37.156Z,50.48
2018-05-04T12:17:37.136Z,49.99
2018-05-04T12:18:37.016Z,49.60
2018-05-04T12:19:37.047Z,50.31
2018-05-04T12:20:36.882Z,49.22
2018-05-04T12:21:36.853Z,49.90
2018-05-04T12:22:36.750Z,49.90
2018-05-04T12:23:36.764Z,49.63
2018-05-04T12:24:36.623Z,48.66
2018-05-04T12:25:36.579Z,50.50
2018-05-04T12:26:36.490Z,51.18
2018-05-04T12:27:36.492Z,50.02
2018-05-04T12:28:36.357Z,48.18
2018-05-04T12:29:36.396Z,49.34
2018-05-04T12:30:36.233Z,50.28
2018-05-04T12:31:36.225Z,48.74
2018-05-04T12:32:36.097Z,48.54
2018-05-04T12:33:36.114Z,48.64
2018-05-04T12:34:35.966Z,49.02
2018-05-04T12:35:35.921Z,49.70
2018-05-04T12:36:35.831Z,49.90
2018-05-04T12:37:35.837Z,49.90
2018-05-04T12:38:35.728Z,49.90
2018-05-04T12:39:35.749Z,49.12
2018-05-04T12:40:35.566Z,49.90
2018-05-04T12:41:35.554Z,49.99
2018-05-04T12:42:35.438Z,50.18
2018-05-04T12:43:35.466Z,50.70
2018-05-04T12:44:35.308Z,50.70
2018-05-04T12:45:35.276Z,50.98
2018-05-04T12:46:35.184Z,49.34
2018-05-04T12:47:35.183Z,48.08
2018-05-04T12:48:35.048Z,49.07
2018-05-04T12:49:35.100Z,48.20
2018-05-04T12:50:34.917Z,48.59
2018-05-04T12:51:34.910Z,47.81